Time;durP1;ratioP1;P1;durP2;ratioP2;P2;SDS_P1;SDS_P2;PMS_P1;PMS_P2;Temp;Humidity;BMP_temperature;BMP_pressure;BME280_temperature;BME280_humidity;BME280_pressure;Samples;Min_cycle;Max_cycle;Signal;HPM_P1;HPM_P2
2021/05/12 00:02:03;;;;;;;10.90;10.20;;;11.80;99.90;;;;;;5067005;28;20206;-76
2021/05/12 00:04:29;;;;;;;11.17;10.47;;;11.80;99.90;;;;;;5055490;28;20222;-77
2021/05/12 00:06:57;;;;;;;11.60;10.80;;;11.80;99.90;;;;;;5065961;28;20209;-76
2021/05/12 00:09:23;;;;;;;10.90;10.30;;;11.80;99.90;;;;;;5048981;28;20194;-76
2021/05/12 00:11:49;;;;;;;11.37;10.53;;;11.80;99.90;;;;;;5051682;28;20663;-76
2021/05/12 00:14:16;;;;;;;11.30;10.60;;;11.80;99.90;;;;;;5054869;28;20226;-76
2021/05/12 00:16:42;;;;;;;11.83;11.13;;;11.80;99.90;;;;;;5068479;28;20617;-76
2021/05/12 00:19:08;;;;;;;11.90;11.20;;;11.80;99.90;;;;;;5070812;28;20236;-76
2021/05/12 00:21:40;;;;;;;11.27;10.57;;;11.80;99.90;;;;;;5067407;28;20193;-76
2021/05/12 00:24:08;;;;;;;11.50;10.80;;;11.80;99.90;;;;;;5069246;28;20218;-76
2021/05/12 00:26:37;;;;;;;11.23;10.60;;;11.80;99.90;;;;;;5073402;28;20620;-76
2021/05/12 00:29:04;;;;;;;11.70;10.90;;;11.80;99.90;;;;;;5067554;28;20203;-76
2021/05/12 00:31:30;;;;;;;11.20;10.60;;;11.80;99.90;;;;;;5054789;28;20667;-76
2021/05/12 00:33:57;;;;;;;11.70;11.00;;;11.80;99.90;;;;;;5065907;28;20217;-76
2021/05/12 00:36:23;;;;;;;11.70;10.90;;;11.80;99.90;;;;;;5072106;28;20607;-76
2021/05/12 00:38:49;;;;;;;10.93;10.33;;;11.80;99.90;;;;;;5047800;28;20275;-76
2021/05/12 00:41:17;;;;;;;10.93;10.27;;;11.80;99.90;;;;;;5069825;28;20198;-77
2021/05/12 00:43:43;;;;;;;10.70;10.10;;;11.80;99.90;;;;;;5071097;28;20214;-76
2021/05/12 00:46:10;;;;;;;11.30;10.70;;;11.70;99.90;;;;;;5049637;28;20203;-76
2021/05/12 00:48:38;;;;;;;11.03;10.33;;;11.80;99.90;;;;;;5072386;28;20240;-76
2021/05/12 00:51:05;;;;;;;10.97;10.33;;;11.70;99.90;;;;;;5065029;28;20205;-76
2021/05/12 00:53:31;;;;;;;10.60;10.00;;;11.70;99.90;;;;;;5054388;28;20283;-76
2021/05/12 00:55:58;;;;;;;10.37;9.77;;;11.70;99.90;;;;;;5064499;28;20204;-76
2021/05/12 00:58:25;;;;;;;10.67;10.00;;;11.70;99.90;;;;;;5052593;28;20198;-76
2021/05/12 01:00:52;;;;;;;11.10;10.30;;;11.70;99.90;;;;;;5053024;28;20201;-76
2021/05/12 01:03:18;;;;;;;10.67;10.07;;;11.70;99.90;;;;;;5065333;28;20710;-76
2021/05/12 01:06:01;;;;;;;10.60;10.00;;;11.70;99.90;;;;;;5063811;28;20198;-76
2021/05/12 01:08:28;;;;;;;10.87;10.27;;;11.70;99.90;;;;;;5046330;28;20201;-76
2021/05/12 01:10:55;;;;;;;10.80;10.20;;;11.70;99.90;;;;;;5064425;28;20606;-76
2021/05/12 01:13:21;;;;;;;10.70;10.10;;;11.70;99.90;;;;;;5054115;28;20223;-76
2021/05/12 01:15:48;;;;;;;10.73;10.13;;;11.70;99.90;;;;;;5066834;28;20207;-77
2021/05/12 01:18:16;;;;;;;10.80;10.20;;;11.70;99.90;;;;;;5055509;28;20210;-75
2021/05/12 01:20:51;;;;;;;10.53;9.93;;;11.60;99.90;;;;;;5063776;28;20197;-76
2021/05/12 01:23:19;;;;;;;10.50;9.90;;;11.60;99.90;;;;;;5045633;28;20218;-76
2021/05/12 01:25:46;;;;;;;10.73;10.13;;;11.70;99.90;;;;;;5069285;28;20591;-77
2021/05/12 01:28:13;;;;;;;10.87;10.17;;;11.70;99.90;;;;;;5047765;28;20203;-75
2021/05/12 01:30:40;;;;;;;10.70;10.10;;;11.70;99.90;;;;;;5057268;28;20195;-76
2021/05/12 01:33:07;;;;;;;11.00;10.30;;;11.70;99.90;;;;;;5060672;28;20742;-76
2021/05/12 01:35:33;;;;;;;10.60;10.00;;;11.60;99.90;;;;;;5062301;28;20214;-76
2021/05/12 01:38:01;;;;;;;10.83;10.23;;;11.60;99.90;;;;;;5043333;28;20199;-76
2021/05/12 01:40:27;;;;;;;11.00;10.40;;;11.60;99.90;;;;;;5062239;28;20233;-76
2021/05/12 01:42:53;;;;;;;10.80;10.10;;;11.60;99.90;;;;;;5058338;28;20214;-76
2021/05/12 01:45:20;;;;;;;10.83;10.20;;;11.60;99.90;;;;;;5062365;28;20197;-76
2021/05/12 01:47:46;;;;;;;10.80;10.20;;;11.60;99.90;;;;;;5042109;28;20200;-77
2021/05/12 01:50:13;;;;;;;11.00;10.40;;;11.60;99.90;;;;;;5062312;28;20281;-77
2021/05/12 01:52:42;;;;;;;10.87;10.27;;;11.60;99.90;;;;;;5040686;28;20562;-77
2021/05/12 01:55:12;;;;;;;10.77;10.17;;;11.60;99.90;;;;;;5044977;28;20199;-76
2021/05/12 01:57:40;;;;;;;10.60;10.00;;;11.60;99.90;;;;;;5045682;28;20206;-76
2021/05/12 02:00:23;;;;;;;10.43;9.93;;;11.60;99.90;;;;;;5059149;28;20591;-76
2021/05/12 02:02:50;;;;;;;10.80;10.20;;;11.50;99.90;;;;;;5051541;28;20211;-76
2021/05/12 02:05:17;;;;;;;10.67;10.07;;;11.50;99.90;;;;;;5067434;28;20201;-76
2021/05/12 02:07:44;;;;;;;11.03;10.23;;;11.50;99.90;;;;;;5054961;28;20242;-77
2021/05/12 02:10:11;;;;;;;10.90;10.30;;;11.50;99.90;;;;;;5046378;28;20688;-76
2021/05/12 02:12:38;;;;;;;10.60;10.00;;;11.50;99.90;;;;;;5049192;28;20690;-76
2021/05/12 02:15:05;;;;;;;10.20;9.60;;;11.50;99.90;;;;;;5110665;22;20226;-77
2021/05/12 02:17:32;;;;;;;9.67;9.10;;;11.40;99.90;;;;;;5091634;28;20198;-75
2021/05/12 02:19:58;;;;;;;9.57;8.97;;;11.40;99.90;;;;;;5091067;28;20210;-77
2021/05/12 02:22:24;;;;;;;10.03;9.43;;;11.40;99.90;;;;;;5091506;28;20673;-77
2021/05/12 02:24:51;;;;;;;10.73;10.13;;;11.40;99.90;;;;;;5075828;28;20219;-76
2021/05/12 02:27:18;;;;;;;10.47;9.90;;;11.40;99.90;;;;;;5071296;28;20206;-76
2021/05/12 02:29:44;;;;;;;11.10;10.50;;;11.40;99.90;;;;;;5071058;28;20187;-75
2021/05/12 02:32:10;;;;;;;10.83;10.23;;;11.40;99.90;;;;;;5071174;28;20206;-76
2021/05/12 02:34:36;;;;;;;10.50;9.90;;;11.40;99.90;;;;;;5070952;28;20207;-75
2021/05/12 02:37:03;;;;;;;10.80;10.20;;;11.40;99.90;;;;;;5071001;28;20198;-76
2021/05/12 02:39:29;;;;;;;11.37;10.67;;;11.30;99.90;;;;;;5070082;28;20595;-75
2021/05/12 02:41:56;;;;;;;10.90;10.20;;;11.30;99.90;;;;;;5072758;28;20202;-74
2021/05/12 02:44:23;;;;;;;11.50;10.80;;;11.30;99.90;;;;;;5069624;28;20226;-75
2021/05/12 02:46:50;;;;;;;9.80;9.30;;;11.30;99.90;;;;;;5058175;28;20209;-75
2021/05/12 02:49:16;;;;;;;10.30;9.70;;;11.30;99.90;;;;;;5071019;28;20203;-74
2021/05/12 02:51:44;;;;;;;10.63;9.87;;;11.30;99.90;;;;;;5064001;28;20681;-74
2021/05/12 02:54:11;;;;;;;10.40;9.80;;;11.30;99.90;;;;;;5070758;28;20221;-75
2021/05/12 02:56:37;;;;;;;10.70;10.10;;;11.30;99.90;;;;;;5070640;28;20199;-75
2021/05/12 02:59:04;;;;;;;10.60;9.73;;;11.30;99.90;;;;;;5069196;28;20215;-74
2021/05/12 03:01:31;;;;;;;10.60;10.00;;;11.20;99.90;;;;;;5073023;28;20210;-74
2021/05/12 03:03:58;;;;;;;11.37;10.70;;;11.20;99.90;;;;;;5074367;28;20222;-75
2021/05/12 03:06:24;;;;;;;10.63;9.90;;;11.30;99.90;;;;;;5074341;28;20285;-76
2021/05/12 03:08:50;;;;;;;10.90;10.30;;;11.30;99.90;;;;;;5073031;28;20203;-76
2021/05/12 03:11:16;;;;;;;10.60;10.00;;;11.30;99.90;;;;;;5073950;28;20252;-76
2021/05/12 03:13:43;;;;;;;10.70;10.10;;;11.20;99.90;;;;;;5071120;28;20229;-76
2021/05/12 03:16:09;;;;;;;11.50;10.80;;;11.20;99.90;;;;;;5065936;28;20205;-76
2021/05/12 03:18:36;;;;;;;10.70;10.10;;;11.20;99.90;;;;;;5073780;28;20203;-76
2021/05/12 03:21:03;;;;;;;10.50;9.90;;;11.20;99.90;;;;;;5071580;28;20210;-76
2021/05/12 03:23:30;;;;;;;11.03;10.33;;;11.20;99.90;;;;;;5071356;28;20214;-76
2021/05/12 03:25:56;;;;;;;10.50;9.90;;;11.20;99.90;;;;;;5071107;28;20228;-76
2021/05/12 03:28:22;;;;;;;10.80;10.20;;;11.20;99.90;;;;;;5073743;28;20204;-75
2021/05/12 03:30:49;;;;;;;11.10;10.20;;;11.20;99.90;;;;;;5073725;28;20191;-76
2021/05/12 03:33:16;;;;;;;11.67;10.97;;;11.20;99.90;;;;;;5073427;28;20194;-76
2021/05/12 03:35:43;;;;;;;10.80;10.20;;;11.20;99.90;;;;;;5074178;28;20191;-77
2021/05/12 03:38:11;;;;;;;11.10;10.50;;;11.20;99.90;;;;;;5066143;28;20185;-76
2021/05/12 03:40:39;;;;;;;10.33;9.73;;;11.20;99.90;;;;;;5073607;28;20574;-77
2021/05/12 03:43:06;;;;;;;10.57;9.97;;;11.20;99.90;;;;;;5073757;28;20190;-77
2021/05/12 03:45:32;;;;;;;11.10;10.40;;;11.20;99.90;;;;;;5071894;28;20194;-77
2021/05/12 03:47:59;;;;;;;10.80;10.10;;;11.20;99.90;;;;;;5072004;28;20206;-77
2021/05/12 03:50:28;;;;;;;10.73;10.13;;;11.20;99.90;;;;;;5072008;28;20198;-77
2021/05/12 03:52:56;;;;;;;10.70;10.10;;;11.20;99.90;;;;;;5071911;28;20202;-77
2021/05/12 03:55:23;;;;;;;10.33;9.73;;;11.20;99.90;;;;;;5071826;28;20763;-77
2021/05/12 03:57:50;;;;;;;10.70;10.10;;;11.20;99.90;;;;;;5071802;28;20237;-76
2021/05/12 04:00:16;;;;;;;10.70;10.10;;;11.20;99.90;;;;;;5071608;28;20229;-76
2021/05/12 04:02:44;;;;;;;10.80;10.20;;;11.20;99.90;;;;;;5072094;28;20567;-77
2021/05/12 04:05:12;;;;;;;10.93;10.20;;;11.20;99.90;;;;;;5073377;28;20694;-77
2021/05/12 04:07:38;;;;;;;10.80;10.20;;;11.20;99.90;;;;;;5073621;28;20209;-75
2021/05/12 04:10:09;;;;;;;11.57;10.87;;;11.10;99.90;;;;;;5071998;28;20637;-79
2021/05/12 04:12:35;;;;;;;10.83;10.23;;;11.10;99.90;;;;;;5073193;28;20206;-77
2021/05/12 04:15:02;;;;;;;10.70;10.10;;;11.20;99.90;;;;;;5073008;28;20698;-75
2021/05/12 04:17:28;;;;;;;11.23;10.63;;;11.10;99.90;;;;;;5071933;28;20218;-77
2021/05/12 04:19:54;;;;;;;11.10;10.50;;;11.10;99.90;;;;;;5071521;28;20207;-75
2021/05/12 04:22:21;;;;;;;12.17;11.37;;;11.10;99.90;;;;;;5073095;28;20264;-76
2021/05/12 04:24:47;;;;;;;11.87;11.17;;;11.10;99.90;;;;;;5071491;28;20222;-76
2021/05/12 04:27:17;;;;;;;11.60;10.90;;;11.10;99.90;;;;;;5073092;28;20198;-76
2021/05/12 04:29:43;;;;;;;11.60;10.90;;;11.10;99.90;;;;;;5071549;28;20202;-76
2021/05/12 04:32:10;;;;;;;11.30;10.63;;;11.10;99.90;;;;;;5070728;28;20206;-75
2021/05/12 04:34:36;;;;;;;11.27;10.67;;;11.10;99.90;;;;;;5072410;28;20203;-75
2021/05/12 04:37:03;;;;;;;11.57;10.97;;;11.10;99.90;;;;;;5072123;28;20607;-75
2021/05/12 04:39:29;;;;;;;11.60;11.00;;;11.10;99.90;;;;;;5072356;28;20223;-76
2021/05/12 04:41:56;;;;;;;11.80;11.10;;;11.10;99.90;;;;;;5071357;28;20205;-76
2021/05/12 04:44:23;;;;;;;11.77;11.10;;;11.10;99.90;;;;;;5072483;28;20580;-76
2021/05/12 04:46:50;;;;;;;11.87;11.17;;;11.10;99.90;;;;;;5069544;28;20195;-77
2021/05/12 04:49:17;;;;;;;12.30;11.40;;;11.10;99.90;;;;;;5069480;28;20206;-76
2021/05/12 04:51:43;;;;;;;12.37;11.57;;;11.10;99.90;;;;;;5070306;28;20203;-76
2021/05/12 04:54:11;;;;;;;11.83;11.03;;;11.10;99.90;;;;;;5069096;28;20211;-76
2021/05/12 04:56:38;;;;;;;12.33;11.53;;;11.10;99.90;;;;;;5069173;28;20675;-76
2021/05/12 04:59:05;;;;;;;12.07;11.30;;;11.10;99.90;;;;;;5070490;28;20206;-76
2021/05/12 05:01:32;;;;;;;11.87;11.17;;;11.10;99.90;;;;;;5070757;28;20186;-76
2021/05/12 05:03:59;;;;;;;12.23;11.53;;;11.10;99.90;;;;;;5070666;28;20282;-76
2021/05/12 05:06:25;;;;;;;12.63;11.83;;;11.00;99.90;;;;;;5070483;28;20194;-76
2021/05/12 05:08:52;;;;;;;11.60;10.80;;;11.10;99.90;;;;;;5068971;28;20194;-75
2021/05/12 05:11:18;;;;;;;11.67;11.07;;;11.10;99.90;;;;;;5056472;28;20377;-76
2021/05/12 05:13:44;;;;;;;11.83;11.23;;;11.10;99.90;;;;;;5066258;28;20226;-76
2021/05/12 05:16:11;;;;;;;12.20;11.40;;;11.10;99.90;;;;;;5070090;28;20252;-76
2021/05/12 05:18:39;;;;;;;11.87;11.20;;;11.10;99.90;;;;;;5069994;28;20206;-76
2021/05/12 05:21:06;;;;;;;11.73;11.03;;;11.10;99.90;;;;;;5069708;28;20256;-76
2021/05/12 05:23:33;;;;;;;11.67;10.97;;;11.10;99.90;;;;;;5068106;28;20222;-76
2021/05/12 05:26:00;;;;;;;11.30;10.43;;;11.10;99.90;;;;;;5069962;28;20281;-76
2021/05/12 05:28:26;;;;;;;11.67;10.97;;;11.10;99.90;;;;;;5071370;28;20191;-76
2021/05/12 05:30:53;;;;;;;10.00;9.40;;;11.10;99.90;;;;;;5071643;28;20562;-76
2021/05/12 05:33:39;;;;;;;9.80;9.20;;;11.00;99.90;;;;;;5071850;28;20757;-76
2021/05/12 05:36:24;;;;;;;10.00;9.40;;;11.00;99.90;;;;;;5065989;28;20213;-76
2021/05/12 05:39:09;;;;;;;10.17;9.57;;;11.00;99.90;;;;;;5069049;28;20574;-76
2021/05/12 05:41:55;;;;;;;10.20;9.70;;;10.90;99.90;;;;;;5071722;28;20653;-76
2021/05/12 05:44:40;;;;;;;10.73;10.10;;;10.90;99.90;;;;;;5074282;28;20233;-76
2021/05/12 05:47:26;;;;;;;10.23;9.63;;;10.90;99.90;;;;;;5065961;28;20271;-76
2021/05/12 05:50:13;;;;;;;9.80;9.30;;;11.00;99.90;;;;;;5063851;28;20197;-77
2021/05/12 05:52:58;;;;;;;10.47;9.87;;;11.00;99.90;;;;;;5071118;28;20236;-76
2021/05/12 05:55:43;;;;;;;10.03;9.40;;;11.00;99.90;;;;;;5059298;28;20521;-78
2021/05/12 05:58:27;;;;;;;9.97;9.47;;;11.00;99.90;;;;;;5063639;28;20658;-76
2021/05/12 06:01:12;;;;;;;10.67;9.97;;;10.90;99.90;;;;;;5063748;28;20200;-76
2021/05/12 06:03:39;;;;;;;9.97;9.27;;;10.90;99.90;;;;;;5067886;28;20602;-75
2021/05/12 06:06:24;;;;;;;10.30;9.60;;;10.90;99.90;;;;;;5065840;28;20284;-75
2021/05/12 06:09:09;;;;;;;10.20;9.60;;;10.90;99.90;;;;;;5069955;28;20201;-76
2021/05/12 06:11:54;;;;;;;10.60;10.00;;;10.90;99.90;;;;;;5070882;28;20208;-76
2021/05/12 06:14:40;;;;;;;9.93;9.43;;;10.90;99.90;;;;;;5067893;28;20751;-76
2021/05/12 06:17:26;;;;;;;10.30;9.70;;;10.90;99.90;;;;;;5059225;28;20324;-75
2021/05/12 06:20:12;;;;;;;10.20;9.63;;;10.90;99.90;;;;;;5061925;28;20221;-75
2021/05/12 06:23:02;;;;;;;10.20;9.60;;;10.90;99.90;;;;;;5069776;28;20213;-76
2021/05/12 06:25:48;;;;;;;10.70;10.00;;;11.00;99.90;;;;;;5072828;28;20232;-76
2021/05/12 06:28:33;;;;;;;10.30;9.70;;;11.00;99.90;;;;;;5071603;28;20213;-76
2021/05/12 06:31:18;;;;;;;10.63;9.93;;;11.00;99.90;;;;;;5071031;28;20572;-76
2021/05/12 06:34:03;;;;;;;10.70;10.10;;;11.10;99.90;;;;;;5071512;28;20233;-76
2021/05/12 06:36:48;;;;;;;10.60;10.00;;;11.10;99.90;;;;;;5065933;28;20210;-77
2021/05/12 06:39:33;;;;;;;10.50;9.80;;;11.20;99.90;;;;;;5066618;28;20213;-77
2021/05/12 06:42:00;;;;;;;10.03;9.43;;;11.20;99.90;;;;;;5074670;28;20195;-78
2021/05/12 06:44:27;;;;;;;10.20;9.60;;;11.30;99.90;;;;;;5074048;28;20206;-78
2021/05/12 06:46:53;;;;;;;9.93;9.33;;;11.30;99.90;;;;;;5070974;28;20812;-78
2021/05/12 06:49:20;;;;;;;9.80;9.30;;;11.40;99.90;;;;;;5071834;28;20190;-76
2021/05/12 06:51:48;;;;;;;10.10;9.50;;;11.40;99.90;;;;;;5072811;28;20194;-78
2021/05/12 06:54:14;;;;;;;9.80;9.30;;;11.50;99.90;;;;;;5074511;28;20256;-77
2021/05/12 06:56:42;;;;;;;9.90;9.40;;;11.60;99.90;;;;;;5071610;28;20198;-77
2021/05/12 06:59:08;;;;;;;9.83;9.33;;;11.60;99.90;;;;;;5072416;28;20217;-77
2021/05/12 07:01:34;;;;;;;9.93;9.33;;;11.70;99.90;;;;;;5071879;28;20234;-77
2021/05/12 07:04:00;;;;;;;9.73;9.13;;;11.70;99.90;;;;;;5072182;28;20215;-78
2021/05/12 07:06:27;;;;;;;9.73;9.13;;;11.60;99.90;;;;;;5074501;28;20211;-74
2021/05/12 07:08:53;;;;;;;9.83;9.23;;;11.60;99.90;;;;;;5074588;28;20293;-76
2021/05/12 07:11:21;;;;;;;9.70;9.10;;;11.50;99.90;;;;;;5074688;28;20244;-74
2021/05/12 07:13:50;;;;;;;10.00;9.40;;;11.50;99.90;;;;;;5074441;28;20243;-75
2021/05/12 07:16:17;;;;;;;9.63;9.03;;;11.50;99.90;;;;;;5077258;28;20194;-74
2021/05/12 07:18:43;;;;;;;10.10;9.50;;;11.50;99.90;;;;;;5074218;28;20244;-74
2021/05/12 07:21:09;;;;;;;9.33;8.83;;;11.60;99.90;;;;;;5073118;28;20272;-75
2021/05/12 07:23:38;;;;;;;10.03;9.37;;;11.60;99.90;;;;;;5072589;28;20277;-74
2021/05/12 07:26:04;;;;;;;9.57;9.07;;;11.70;99.90;;;;;;5072729;28;20217;-74
2021/05/12 07:28:31;;;;;;;9.10;8.60;;;11.80;99.90;;;;;;5074061;28;20199;-74
2021/05/12 07:30:58;;;;;;;9.10;8.60;;;11.90;99.90;;;;;;5074300;28;20187;-75
2021/05/12 07:33:24;;;;;;;8.63;8.13;;;11.90;99.90;;;;;;5076612;28;20337;-74
2021/05/12 07:35:50;;;;;;;9.00;8.50;;;11.90;99.90;;;;;;5073420;28;20261;-74
2021/05/12 07:38:17;;;;;;;8.70;8.20;;;12.00;99.90;;;;;;5074739;28;20200;-76
2021/05/12 07:40:43;;;;;;;8.60;8.10;;;12.00;99.90;;;;;;5073613;28;20219;-76
2021/05/12 07:43:13;;;;;;;8.87;8.37;;;12.00;99.90;;;;;;5073941;28;20202;-75
2021/05/12 07:45:41;;;;;;;8.90;8.40;;;12.10;99.90;;;;;;5072211;28;20252;-76
2021/05/12 07:48:10;;;;;;;9.63;8.93;;;12.10;99.90;;;;;;5072970;28;20320;-75
2021/05/12 07:50:38;;;;;;;8.80;8.30;;;12.20;99.90;;;;;;5071928;28;20206;-76
2021/05/12 07:53:06;;;;;;;9.30;8.67;;;12.20;99.90;;;;;;5073361;28;20701;-76
2021/05/12 07:55:32;;;;;;;9.70;9.00;;;12.20;99.90;;;;;;5073749;28;20205;-76
2021/05/12 07:57:59;;;;;;;9.73;9.13;;;12.20;99.90;;;;;;5073569;28;20199;-76
2021/05/12 08:00:25;;;;;;;9.57;8.97;;;12.20;99.90;;;;;;5073346;28;20595;-75
2021/05/12 08:02:52;;;;;;;9.63;8.83;;;12.20;99.90;;;;;;5073441;28;20198;-76
2021/05/12 08:05:19;;;;;;;9.60;9.00;;;12.20;99.90;;;;;;5073149;28;20215;-76
2021/05/12 08:07:46;;;;;;;10.50;9.77;;;12.20;99.90;;;;;;5073327;28;20203;-76
2021/05/12 08:10:12;;;;;;;9.57;8.97;;;12.30;99.90;;;;;;5073188;28;20563;-76
2021/05/12 08:12:38;;;;;;;9.40;8.90;;;12.30;99.90;;;;;;5072061;28;20203;-75
2021/05/12 08:15:06;;;;;;;8.87;8.37;;;12.30;99.90;;;;;;5087770;22;20234;-74
2021/05/12 08:17:33;;;;;;;9.60;8.83;;;12.30;99.90;;;;;;5081098;28;20683;-74
2021/05/12 08:20:01;;;;;;;9.47;8.87;;;12.40;99.90;;;;;;5074007;28;20215;-74
2021/05/12 08:22:28;;;;;;;10.20;9.50;;;12.50;99.90;;;;;;5078117;28;20192;-74
2021/05/12 08:24:54;;;;;;;9.67;8.97;;;12.50;99.90;;;;;;5057577;28;20224;-75
2021/05/12 08:27:21;;;;;;;9.60;9.00;;;12.60;99.90;;;;;;5042128;28;20204;-75
2021/05/12 08:29:47;;;;;;;9.47;8.87;;;12.70;99.90;;;;;;5059705;28;20195;-76
2021/05/12 08:32:16;;;;;;;9.70;9.20;;;12.80;99.90;;;;;;5056543;28;20275;-76
2021/05/12 08:34:42;;;;;;;9.50;9.00;;;12.80;99.90;;;;;;5059986;28;20208;-75
2021/05/12 08:37:09;;;;;;;10.07;9.37;;;12.90;99.90;;;;;;5045119;28;20193;-75
2021/05/12 08:39:36;;;;;;;10.73;10.10;;;12.90;99.90;;;;;;5035129;28;20218;-75
2021/05/12 08:42:03;;;;;;;10.13;9.53;;;12.80;99.90;;;;;;5037057;28;20250;-76
2021/05/12 08:44:32;;;;;;;10.63;9.83;;;12.80;99.90;;;;;;5056032;28;20221;-76
2021/05/12 08:47:00;;;;;;;9.60;9.10;;;12.60;99.90;;;;;;5060168;28;20225;-76
2021/05/12 08:49:27;;;;;;;9.70;9.10;;;12.60;99.90;;;;;;5052973;28;20209;-76
2021/05/12 08:51:54;;;;;;;9.27;8.77;;;12.60;99.90;;;;;;5060646;28;20190;-76
2021/05/12 08:54:22;;;;;;;10.03;9.43;;;12.50;99.90;;;;;;5060602;28;20217;-75
2021/05/12 08:56:49;;;;;;;9.90;9.30;;;12.50;99.90;;;;;;5054023;28;20200;-75
2021/05/12 08:59:16;;;;;;;10.10;9.50;;;12.50;99.90;;;;;;5053100;28;20217;-76
2021/05/12 09:01:43;;;;;;;9.87;9.20;;;12.50;99.90;;;;;;5054263;28;20192;-76
2021/05/12 09:04:10;;;;;;;9.97;9.27;;;12.60;99.90;;;;;;5028953;28;20213;-76
2021/05/12 09:06:38;;;;;;;9.30;8.80;;;12.50;99.90;;;;;;5057176;28;20602;-77
2021/05/12 09:09:06;;;;;;;9.70;9.10;;;12.50;99.90;;;;;;5065017;28;20239;-76
2021/05/12 09:11:32;;;;;;;9.07;8.57;;;12.50;99.90;;;;;;5059540;28;20196;-76
2021/05/12 09:14:00;;;;;;;9.90;9.20;;;12.50;99.90;;;;;;5055936;28;20226;-77
2021/05/12 09:16:28;;;;;;;9.80;9.20;;;12.50;99.90;;;;;;5037550;28;20669;-76
2021/05/12 09:19:04;;;;;;;10.00;9.40;;;12.40;99.90;;;;;;5056271;28;20192;-76
2021/05/12 09:21:45;;;;;;;9.70;9.10;;;12.50;99.90;;;;;;5040584;28;20238;-76
2021/05/12 09:24:26;;;;;;;9.70;9.10;;;12.40;99.90;;;;;;5054229;28;20221;-77
2021/05/12 09:26:54;;;;;;;9.83;9.27;;;12.50;99.90;;;;;;5036749;28;20201;-76
2021/05/12 09:29:24;;;;;;;10.10;9.50;;;12.50;99.90;;;;;;5050352;28;20196;-76
2021/05/12 09:31:51;;;;;;;10.30;9.60;;;12.60;99.90;;;;;;5040895;28;20205;-77
2021/05/12 09:34:17;;;;;;;9.83;9.23;;;12.60;99.90;;;;;;5038300;28;20221;-77
2021/05/12 09:36:44;;;;;;;9.87;9.30;;;12.60;99.90;;;;;;5033592;28;20552;-77
2021/05/12 09:39:12;;;;;;;9.60;9.10;;;12.70;99.90;;;;;;5033541;28;20208;-77
2021/05/12 09:41:39;;;;;;;10.13;9.53;;;12.70;99.90;;;;;;5034608;28;20692;-76
2021/05/12 09:44:07;;;;;;;10.20;9.50;;;12.70;99.90;;;;;;5033132;28;20227;-76
2021/05/12 09:46:36;;;;;;;9.80;9.20;;;12.70;99.90;;;;;;5038860;28;20199;-75
2021/05/12 09:49:17;;;;;;;10.00;9.40;;;12.80;99.90;;;;;;5039203;28;20212;-76
2021/05/12 09:51:48;;;;;;;9.37;8.77;;;12.80;99.90;;;;;;5017125;28;20206;-76
2021/05/12 09:54:18;;;;;;;9.43;8.93;;;12.80;99.90;;;;;;5035406;28;20233;-76
2021/05/12 09:56:51;;;;;;;10.00;9.30;;;12.90;99.90;;;;;;5033836;28;20210;-76
2021/05/12 09:59:20;;;;;;;9.40;8.90;;;12.90;99.90;;;;;;5058087;28;20211;-77
2021/05/12 10:01:51;;;;;;;10.00;9.40;;;12.90;99.90;;;;;;5054274;28;20204;-76
2021/05/12 10:04:37;;;;;;;9.37;8.77;;;13.00;99.90;;;;;;5052238;28;20651;-76
2021/05/12 10:07:13;;;;;;;9.50;9.00;;;13.10;99.90;;;;;;5055566;28;20669;-76
2021/05/12 10:09:40;;;;;;;9.70;9.13;;;13.00;99.90;;;;;;5034639;28;20205;-76
2021/05/12 10:12:09;;;;;;;9.30;8.80;;;13.00;99.90;;;;;;5055522;28;20201;-77
2021/05/12 10:14:37;;;;;;;9.90;9.30;;;13.10;99.90;;;;;;5039217;28;20230;-77
2021/05/12 10:17:06;;;;;;;9.53;9.03;;;13.20;99.90;;;;;;5060495;28;20224;-77
2021/05/12 10:19:33;;;;;;;9.67;9.17;;;13.20;99.90;;;;;;5042731;28;20218;-76
2021/05/12 10:22:02;;;;;;;9.83;9.23;;;13.20;99.90;;;;;;5058461;28;20215;-77
2021/05/12 10:24:29;;;;;;;9.70;9.10;;;13.20;99.90;;;;;;5047879;28;20224;-76
2021/05/12 10:26:57;;;;;;;9.90;9.30;;;13.20;99.90;;;;;;5041318;28;20209;-77
2021/05/12 10:29:23;;;;;;;9.80;9.30;;;13.20;99.90;;;;;;5045380;28;20220;-76
2021/05/12 10:31:50;;;;;;;10.13;9.60;;;13.20;99.90;;;;;;5040902;28;20197;-76
2021/05/12 10:34:19;;;;;;;9.60;9.10;;;13.20;99.90;;;;;;5032718;28;20233;-77
2021/05/12 10:36:45;;;;;;;10.10;9.50;;;13.20;99.90;;;;;;5057778;28;20214;-78
2021/05/12 10:39:13;;;;;;;10.00;9.40;;;13.30;99.90;;;;;;5039512;28;20198;-77
2021/05/12 10:41:47;;;;;;;9.43;8.93;;;13.30;99.90;;;;;;5034288;28;20573;-75
2021/05/12 10:44:17;;;;;;;9.53;9.03;;;13.20;99.90;;;;;;5048182;28;20267;-76
2021/05/12 10:47:03;;;;;;;9.40;8.80;;;13.30;99.90;;;;;;5042482;28;20221;-76
2021/05/12 10:49:30;;;;;;;10.33;9.57;;;13.30;99.90;;;;;;5061889;28;20724;-77
2021/05/12 10:51:57;;;;;;;10.80;10.20;;;13.30;99.90;;;;;;5057790;28;20204;-77
2021/05/12 10:54:41;;;;;;;10.23;9.63;;;13.20;99.90;;;;;;5061483;28;20216;-76
2021/05/12 10:57:09;;;;;;;10.07;9.40;;;13.20;99.90;;;;;;5056968;28;20236;-77
2021/05/12 10:59:40;;;;;;;9.60;9.00;;;13.30;99.90;;;;;;5058535;28;20222;-78
2021/05/12 11:02:07;;;;;;;10.17;9.57;;;13.40;99.90;;;;;;5061347;28;20198;-76
2021/05/12 11:04:35;;;;;;;10.00;9.40;;;13.40;99.90;;;;;;5056907;28;20229;-76
2021/05/12 11:07:06;;;;;;;10.00;9.40;;;13.40;99.90;;;;;;5060998;28;20255;-77
2021/05/12 11:09:46;;;;;;;10.33;9.73;;;13.40;99.90;;;;;;5032449;28;20693;-76
2021/05/12 11:12:33;;;;;;;10.10;9.57;;;13.40;99.90;;;;;;5041047;28;20201;-77
2021/05/12 11:15:02;;;;;;;10.30;9.60;;;13.50;99.90;;;;;;5039758;28;20231;-76
2021/05/12 11:17:49;;;;;;;9.90;9.30;;;13.50;99.90;;;;;;5050956;28;20198;-77
2021/05/12 11:20:25;;;;;;;10.10;9.60;;;13.50;99.90;;;;;;5056086;28;20250;-77
2021/05/12 11:22:52;;;;;;;10.07;9.47;;;13.50;99.90;;;;;;5058233;28;20233;-77
2021/05/12 11:25:24;;;;;;;10.00;9.40;;;13.60;99.90;;;;;;5048594;28;20610;-75
2021/05/12 11:31:27;;;;;;;9.80;9.20;;;13.70;99.90;;;;;;5038666;28;20679;-75
2021/05/12 11:33:54;;;;;;;9.80;9.20;;;13.80;99.90;;;;;;5056086;28;20215;-76
2021/05/12 11:36:23;;;;;;;9.60;9.10;;;13.90;99.90;;;;;;5046625;28;20207;-76
2021/05/12 11:38:51;;;;;;;9.83;9.30;;;13.90;99.90;;;;;;5064477;28;20214;-76
2021/05/12 11:41:19;;;;;;;9.93;9.33;;;13.90;99.90;;;;;;5057093;28;20233;-77
2021/05/12 11:43:47;;;;;;;9.67;9.10;;;13.80;99.90;;;;;;5059129;28;20214;-76
2021/05/12 11:46:16;;;;;;;9.60;9.00;;;13.90;99.90;;;;;;5061205;28;20679;-80
2021/05/12 11:48:45;;;;;;;9.13;8.63;;;14.00;99.90;;;;;;5061600;28;20229;-77
2021/05/12 11:51:16;;;;;;;9.70;9.10;;;14.00;99.90;;;;;;5066298;28;20197;-77
2021/05/12 11:53:44;;;;;;;9.47;8.90;;;14.00;99.90;;;;;;5064413;28;20218;-76
2021/05/12 11:56:12;;;;;;;9.80;9.10;;;14.10;99.90;;;;;;5048699;28;20210;-76
2021/05/12 11:58:41;;;;;;;9.37;8.77;;;14.10;99.90;;;;;;5061960;28;20199;-77
2021/05/12 12:01:09;;;;;;;9.20;8.70;;;14.30;99.90;;;;;;5057327;28;20829;-79
2021/05/12 12:03:41;;;;;;;9.00;8.50;;;14.30;99.90;;;;;;5055055;28;20203;-77
2021/05/12 12:06:07;;;;;;;9.87;9.20;;;14.50;99.90;;;;;;5062366;28;20199;-77
2021/05/12 12:08:36;;;;;;;9.10;8.60;;;14.50;99.90;;;;;;5069259;28;20232;-77
2021/05/12 12:11:09;;;;;;;8.43;7.93;;;14.50;99.90;;;;;;5042187;28;20195;-78
2021/05/12 12:13:36;;;;;;;9.20;8.50;;;14.50;99.90;;;;;;5045951;28;20630;-76
2021/05/12 12:16:02;;;;;;;9.90;9.20;;;14.50;99.90;;;;;;5042578;28;20199;-76
2021/05/12 12:18:31;;;;;;;10.07;9.43;;;14.60;99.90;;;;;;5048760;28;20633;-77
2021/05/12 12:20:57;;;;;;;10.30;9.70;;;14.70;99.90;;;;;;5056814;28;20233;-76
2021/05/12 12:23:31;;;;;;;9.70;9.10;;;14.70;99.90;;;;;;5063162;28;20277;-76
2021/05/12 12:26:15;;;;;;;9.60;9.00;;;14.70;99.90;;;;;;5049488;28;20206;-79
2021/05/12 12:28:46;;;;;;;9.57;8.97;;;14.80;99.90;;;;;;5062586;28;20187;-76
2021/05/12 12:31:14;;;;;;;9.60;9.00;;;14.80;99.90;;;;;;5056401;28;20245;-77
2021/05/12 12:33:40;;;;;;;9.17;8.57;;;14.70;99.90;;;;;;5060473;28;20194;-77
2021/05/12 12:36:10;;;;;;;9.30;8.70;;;14.70;99.90;;;;;;5061919;28;20195;-76
2021/05/12 12:38:47;;;;;;;8.53;8.03;;;14.70;99.90;;;;;;5046102;28;20342;-76
2021/05/12 12:41:15;;;;;;;9.40;8.80;;;14.80;99.90;;;;;;5051566;28;20222;-77
2021/05/12 12:43:42;;;;;;;9.70;9.17;;;14.80;99.90;;;;;;5035183;28;20270;-76
2021/05/12 12:46:08;;;;;;;9.60;9.10;;;14.80;99.90;;;;;;5035700;28;20210;-76
2021/05/12 12:48:35;;;;;;;9.60;8.90;;;14.90;99.90;;;;;;5053129;28;20202;-77
2021/05/12 12:51:02;;;;;;;9.00;8.40;;;14.90;99.90;;;;;;5055172;28;20242;-77